sensor_id;sensor_type;location;lat;lon;timestamp;P1;durP1;ratioP1;P2;durP2;ratioP2
66153;SDS011;52956;52.372;4.640;2022-07-22T00:01:00;3.65;;;1.33;;
66153;SDS011;52956;52.372;4.640;2022-07-22T00:03:26;4.40;;;1.40;;
66153;SDS011;52956;52.372;4.640;2022-07-22T00:05:51;3.28;;;1.50;;
66153;SDS011;52956;52.372;4.640;2022-07-22T00:08:16;3.88;;;1.35;;
66153;SDS011;52956;52.372;4.640;2022-07-22T00:10:42;3.60;;;1.60;;
66153;SDS011;52956;52.372;4.640;2022-07-22T00:13:07;2.00;;;1.20;;
66153;SDS011;52956;52.372;4.640;2022-07-22T00:15:32;1.80;;;1.20;;
66153;SDS011;52956;52.372;4.640;2022-07-22T00:17:58;2.90;;;1.60;;
66153;SDS011;52956;52.372;4.640;2022-07-22T00:20:23;2.42;;;1.10;;
66153;SDS011;52956;52.372;4.640;2022-07-22T00:22:48;1.58;;;1.23;;
66153;SDS011;52956;52.372;4.640;2022-07-22T00:25:14;3.42;;;1.30;;
66153;SDS011;52956;52.372;4.640;2022-07-22T00:27:39;2.85;;;1.20;;
66153;SDS011;52956;52.372;4.640;2022-07-22T00:30:06;2.28;;;1.23;;
66153;SDS011;52956;52.372;4.640;2022-07-22T00:32:32;2.83;;;1.40;;
66153;SDS011;52956;52.372;4.640;2022-07-22T00:34:57;1.48;;;1.15;;
66153;SDS011;52956;52.372;4.640;2022-07-22T00:37:23;4.40;;;1.20;;
66153;SDS011;52956;52.372;4.640;2022-07-22T00:39:48;4.38;;;1.35;;
66153;SDS011;52956;52.372;4.640;2022-07-22T00:42:14;3.10;;;1.17;;
66153;SDS011;52956;52.372;4.640;2022-07-22T00:44:39;1.40;;;1.15;;
66153;SDS011;52956;52.372;4.640;2022-07-22T00:47:05;2.58;;;1.30;;
66153;SDS011;52956;52.372;4.640;2022-07-22T00:49:30;3.90;;;1.30;;
66153;SDS011;52956;52.372;4.640;2022-07-22T00:51:56;3.90;;;1.40;;
66153;SDS011;52956;52.372;4.640;2022-07-22T00:54:21;2.60;;;1.50;;
66153;SDS011;52956;52.372;4.640;2022-07-22T00:56:47;2.88;;;1.10;;
66153;SDS011;52956;52.372;4.640;2022-07-22T00:59:12;2.97;;;1.00;;
66153;SDS011;52956;52.372;4.640;2022-07-22T01:01:39;1.27;;;1.13;;
66153;SDS011;52956;52.372;4.640;2022-07-22T01:04:04;2.38;;;1.20;;
66153;SDS011;52956;52.372;4.640;2022-07-22T01:06:30;3.63;;;1.20;;
66153;SDS011;52956;52.372;4.640;2022-07-22T01:08:56;3.35;;;1.35;;
66153;SDS011;52956;52.372;4.640;2022-07-22T01:11:22;2.60;;;1.33;;
66153;SDS011;52956;52.372;4.640;2022-07-22T01:13:48;1.25;;;0.90;;
66153;SDS011;52956;52.372;4.640;2022-07-22T01:16:15;2.25;;;1.23;;
66153;SDS011;52956;52.372;4.640;2022-07-22T01:18:41;2.47;;;0.93;;
66153;SDS011;52956;52.372;4.640;2022-07-22T01:21:07;1.58;;;0.80;;
66153;SDS011;52956;52.372;4.640;2022-07-22T01:23:34;3.28;;;1.23;;
66153;SDS011;52956;52.372;4.640;2022-07-22T01:26:00;3.33;;;1.30;;
66153;SDS011;52956;52.372;4.640;2022-07-22T01:28:26;2.15;;;1.20;;
66153;SDS011;52956;52.372;4.640;2022-07-22T01:30:52;2.35;;;1.10;;
66153;SDS011;52956;52.372;4.640;2022-07-22T01:33:18;1.85;;;1.08;;
66153;SDS011;52956;52.372;4.640;2022-07-22T01:35:44;1.10;;;0.98;;
66153;SDS011;52956;52.372;4.640;2022-07-22T01:38:10;4.03;;;1.30;;
66153;SDS011;52956;52.372;4.640;2022-07-22T01:40:36;2.45;;;0.90;;
66153;SDS011;52956;52.372;4.640;2022-07-22T01:43:02;2.35;;;0.85;;
66153;SDS011;52956;52.372;4.640;2022-07-22T01:45:28;2.08;;;0.88;;
66153;SDS011;52956;52.372;4.640;2022-07-22T01:47:53;0.90;;;0.80;;
66153;SDS011;52956;52.372;4.640;2022-07-22T01:50:18;1.48;;;1.05;;
66153;SDS011;52956;52.372;4.640;2022-07-22T01:52:44;1.00;;;0.90;;
66153;SDS011;52956;52.372;4.640;2022-07-22T01:55:09;2.20;;;1.02;;
66153;SDS011;52956;52.372;4.640;2022-07-22T01:57:36;2.35;;;0.90;;
66153;SDS011;52956;52.372;4.640;2022-07-22T02:00:02;3.10;;;1.20;;
66153;SDS011;52956;52.372;4.640;2022-07-22T02:02:29;3.63;;;0.93;;
66153;SDS011;52956;52.372;4.640;2022-07-22T02:04:54;3.30;;;1.17;;
66153;SDS011;52956;52.372;4.640;2022-07-22T02:07:20;2.25;;;1.20;;
66153;SDS011;52956;52.372;4.640;2022-07-22T02:09:45;1.33;;;1.10;;
66153;SDS011;52956;52.372;4.640;2022-07-22T02:12:10;1.33;;;0.82;;
66153;SDS011;52956;52.372;4.640;2022-07-22T02:14:35;2.05;;;1.15;;
66153;SDS011;52956;52.372;4.640;2022-07-22T02:17:01;2.08;;;1.00;;
66153;SDS011;52956;52.372;4.640;2022-07-22T02:19:26;2.55;;;1.00;;
66153;SDS011;52956;52.372;4.640;2022-07-22T02:21:51;1.80;;;1.23;;
66153;SDS011;52956;52.372;4.640;2022-07-22T02:24:17;2.67;;;1.27;;
66153;SDS011;52956;52.372;4.640;2022-07-22T02:26:42;1.17;;;0.98;;
66153;SDS011;52956;52.372;4.640;2022-07-22T02:29:07;2.28;;;1.10;;
66153;SDS011;52956;52.372;4.640;2022-07-22T02:31:33;2.33;;;0.93;;
66153;SDS011;52956;52.372;4.640;2022-07-22T02:33:58;2.30;;;0.90;;
66153;SDS011;52956;52.372;4.640;2022-07-22T02:36:23;1.83;;;1.00;;
66153;SDS011;52956;52.372;4.640;2022-07-22T02:38:49;2.70;;;0.90;;
66153;SDS011;52956;52.372;4.640;2022-07-22T02:41:14;1.25;;;0.90;;
66153;SDS011;52956;52.372;4.640;2022-07-22T02:43:39;2.25;;;0.98;;
66153;SDS011;52956;52.372;4.640;2022-07-22T02:46:05;3.58;;;1.17;;
66153;SDS011;52956;52.372;4.640;2022-07-22T02:48:30;1.35;;;1.02;;
66153;SDS011;52956;52.372;4.640;2022-07-22T02:50:56;1.92;;;1.13;;
66153;SDS011;52956;52.372;4.640;2022-07-22T02:53:21;1.65;;;1.05;;
66153;SDS011;52956;52.372;4.640;2022-07-22T02:55:46;2.40;;;0.90;;
66153;SDS011;52956;52.372;4.640;2022-07-22T02:58:12;2.97;;;1.20;;
66153;SDS011;52956;52.372;4.640;2022-07-22T03:00:37;1.23;;;1.00;;
66153;SDS011;52956;52.372;4.640;2022-07-22T03:03:03;1.05;;;0.95;;
66153;SDS011;52956;52.372;4.640;2022-07-22T03:05:28;2.00;;;1.05;;
66153;SDS011;52956;52.372;4.640;2022-07-22T03:07:54;1.70;;;1.02;;
66153;SDS011;52956;52.372;4.640;2022-07-22T03:10:19;1.48;;;0.90;;
66153;SDS011;52956;52.372;4.640;2022-07-22T03:12:44;1.75;;;0.70;;
66153;SDS011;52956;52.372;4.640;2022-07-22T03:15:10;0.88;;;0.80;;
66153;SDS011;52956;52.372;4.640;2022-07-22T03:17:36;1.63;;;0.98;;
66153;SDS011;52956;52.372;4.640;2022-07-22T03:20:05;2.08;;;1.25;;
66153;SDS011;52956;52.372;4.640;2022-07-22T03:22:33;1.50;;;0.68;;
66153;SDS011;52956;52.372;4.640;2022-07-22T03:24:59;1.00;;;0.80;;
66153;SDS011;52956;52.372;4.640;2022-07-22T03:27:25;4.63;;;0.88;;
66153;SDS011;52956;52.372;4.640;2022-07-22T03:29:50;2.13;;;0.90;;
66153;SDS011;52956;52.372;4.640;2022-07-22T03:32:16;1.30;;;0.82;;
66153;SDS011;52956;52.372;4.640;2022-07-22T03:34:41;1.40;;;0.90;;
66153;SDS011;52956;52.372;4.640;2022-07-22T03:37:06;1.92;;;0.98;;
66153;SDS011;52956;52.372;4.640;2022-07-22T03:39:32;3.42;;;1.20;;
66153;SDS011;52956;52.372;4.640;2022-07-22T03:41:57;1.48;;;0.70;;
66153;SDS011;52956;52.372;4.640;2022-07-22T03:44:22;1.38;;;0.80;;
66153;SDS011;52956;52.372;4.640;2022-07-22T03:46:48;2.83;;;0.85;;
66153;SDS011;52956;52.372;4.640;2022-07-22T03:49:13;2.05;;;0.98;;
66153;SDS011;52956;52.372;4.640;2022-07-22T03:51:39;1.15;;;0.90;;
66153;SDS011;52956;52.372;4.640;2022-07-22T03:54:04;1.67;;;0.80;;
66153;SDS011;52956;52.372;4.640;2022-07-22T03:56:30;1.10;;;0.82;;
66153;SDS011;52956;52.372;4.640;2022-07-22T03:58:56;1.42;;;0.90;;
66153;SDS011;52956;52.372;4.640;2022-07-22T04:01:21;2.90;;;0.90;;
66153;SDS011;52956;52.372;4.640;2022-07-22T04:03:46;4.43;;;0.98;;
66153;SDS011;52956;52.372;4.640;2022-07-22T04:06:13;0.88;;;0.60;;
66153;SDS011;52956;52.372;4.640;2022-07-22T04:08:39;1.40;;;0.90;;
66153;SDS011;52956;52.372;4.640;2022-07-22T04:11:04;1.15;;;0.85;;
66153;SDS011;52956;52.372;4.640;2022-07-22T04:13:29;2.05;;;0.90;;
66153;SDS011;52956;52.372;4.640;2022-07-22T04:15:55;3.67;;;0.60;;
66153;SDS011;52956;52.372;4.640;2022-07-22T04:18:20;1.95;;;0.98;;
66153;SDS011;52956;52.372;4.640;2022-07-22T04:20:45;2.35;;;0.88;;
66153;SDS011;52956;52.372;4.640;2022-07-22T04:23:11;1.30;;;0.70;;
66153;SDS011;52956;52.372;4.640;2022-07-22T04:25:37;1.38;;;0.77;;
66153;SDS011;52956;52.372;4.640;2022-07-22T04:28:02;5.93;;;0.88;;
66153;SDS011;52956;52.372;4.640;2022-07-22T04:30:28;6.10;;;1.48;;
66153;SDS011;52956;52.372;4.640;2022-07-22T04:32:53;2.08;;;0.88;;
66153;SDS011;52956;52.372;4.640;2022-07-22T04:35:18;4.15;;;1.30;;
66153;SDS011;52956;52.372;4.640;2022-07-22T04:37:44;3.95;;;1.40;;
66153;SDS011;52956;52.372;4.640;2022-07-22T04:40:09;5.20;;;1.25;;
66153;SDS011;52956;52.372;4.640;2022-07-22T04:42:35;7.00;;;1.70;;
66153;SDS011;52956;52.372;4.640;2022-07-22T04:45:00;4.15;;;1.35;;
66153;SDS011;52956;52.372;4.640;2022-07-22T04:47:26;6.85;;;1.65;;
66153;SDS011;52956;52.372;4.640;2022-07-22T04:49:51;5.93;;;1.70;;
66153;SDS011;52956;52.372;4.640;2022-07-22T04:52:17;2.70;;;1.30;;
66153;SDS011;52956;52.372;4.640;2022-07-22T04:54:43;4.85;;;1.13;;
66153;SDS011;52956;52.372;4.640;2022-07-22T04:57:08;5.30;;;1.20;;
66153;SDS011;52956;52.372;4.640;2022-07-22T04:59:34;2.95;;;1.33;;
66153;SDS011;52956;52.372;4.640;2022-07-22T05:01:59;2.80;;;1.40;;
66153;SDS011;52956;52.372;4.640;2022-07-22T05:04:24;14.48;;;1.90;;
66153;SDS011;52956;52.372;4.640;2022-07-22T05:06:50;12.15;;;1.88;;
66153;SDS011;52956;52.372;4.640;2022-07-22T05:09:15;7.78;;;1.50;;
66153;SDS011;52956;52.372;4.640;2022-07-22T05:11:40;4.57;;;1.40;;
66153;SDS011;52956;52.372;4.640;2022-07-22T05:14:06;6.97;;;1.83;;
66153;SDS011;52956;52.372;4.640;2022-07-22T05:16:31;5.60;;;1.30;;
66153;SDS011;52956;52.372;4.640;2022-07-22T05:18:56;5.13;;;1.20;;
66153;SDS011;52956;52.372;4.640;2022-07-22T05:21:21;4.95;;;1.50;;
66153;SDS011;52956;52.372;4.640;2022-07-22T05:23:47;4.47;;;0.90;;
66153;SDS011;52956;52.372;4.640;2022-07-22T05:26:12;4.85;;;1.27;;
66153;SDS011;52956;52.372;4.640;2022-07-22T05:28:37;4.13;;;1.40;;
66153;SDS011;52956;52.372;4.640;2022-07-22T05:31:03;3.28;;;1.15;;
66153;SDS011;52956;52.372;4.640;2022-07-22T05:33:28;4.45;;;1.27;;
66153;SDS011;52956;52.372;4.640;2022-07-22T05:35:54;2.72;;;1.02;;
66153;SDS011;52956;52.372;4.640;2022-07-22T05:38:19;3.05;;;1.15;;
66153;SDS011;52956;52.372;4.640;2022-07-22T05:40:44;4.13;;;1.20;;
66153;SDS011;52956;52.372;4.640;2022-07-22T05:43:11;3.90;;;1.48;;
66153;SDS011;52956;52.372;4.640;2022-07-22T05:45:36;3.83;;;1.10;;
66153;SDS011;52956;52.372;4.640;2022-07-22T05:48:01;4.22;;;1.20;;
66153;SDS011;52956;52.372;4.640;2022-07-22T05:50:27;4.10;;;1.10;;
66153;SDS011;52956;52.372;4.640;2022-07-22T05:52:53;1.92;;;1.10;;
66153;SDS011;52956;52.372;4.640;2022-07-22T05:55:18;6.45;;;1.10;;
66153;SDS011;52956;52.372;4.640;2022-07-22T05:57:44;1.42;;;0.88;;
66153;SDS011;52956;52.372;4.640;2022-07-22T06:00:09;2.20;;;1.13;;
66153;SDS011;52956;52.372;4.640;2022-07-22T06:02:35;5.15;;;1.25;;
66153;SDS011;52956;52.372;4.640;2022-07-22T06:05:00;4.03;;;1.48;;
66153;SDS011;52956;52.372;4.640;2022-07-22T06:07:26;2.25;;;1.10;;
66153;SDS011;52956;52.372;4.640;2022-07-22T06:09:52;3.10;;;1.50;;
66153;SDS011;52956;52.372;4.640;2022-07-22T06:12:17;5.75;;;0.98;;
66153;SDS011;52956;52.372;4.640;2022-07-22T06:14:43;2.28;;;1.15;;
66153;SDS011;52956;52.372;4.640;2022-07-22T06:17:09;3.05;;;1.08;;
66153;SDS011;52956;52.372;4.640;2022-07-22T06:19:34;1.92;;;1.10;;
66153;SDS011;52956;52.372;4.640;2022-07-22T06:21:59;2.00;;;1.10;;
66153;SDS011;52956;52.372;4.640;2022-07-22T06:24:25;2.05;;;1.00;;
66153;SDS011;52956;52.372;4.640;2022-07-22T06:26:50;3.50;;;1.33;;
66153;SDS011;52956;52.372;4.640;2022-07-22T06:29:16;2.72;;;1.15;;
66153;SDS011;52956;52.372;4.640;2022-07-22T06:31:41;3.03;;;0.90;;
66153;SDS011;52956;52.372;4.640;2022-07-22T06:34:06;2.42;;;1.15;;
66153;SDS011;52956;52.372;4.640;2022-07-22T06:36:32;1.83;;;0.85;;
66153;SDS011;52956;52.372;4.640;2022-07-22T06:38:58;3.03;;;1.08;;
66153;SDS011;52956;52.372;4.640;2022-07-22T06:41:23;2.75;;;1.13;;
66153;SDS011;52956;52.372;4.640;2022-07-22T06:43:49;1.63;;;0.82;;
66153;SDS011;52956;52.372;4.640;2022-07-22T06:46:14;2.72;;;1.23;;
66153;SDS011;52956;52.372;4.640;2022-07-22T06:48:39;2.30;;;0.90;;
66153;SDS011;52956;52.372;4.640;2022-07-22T06:51:05;2.72;;;1.10;;
66153;SDS011;52956;52.372;4.640;2022-07-22T06:53:30;2.13;;;0.95;;
66153;SDS011;52956;52.372;4.640;2022-07-22T06:55:57;1.90;;;1.00;;
66153;SDS011;52956;52.372;4.640;2022-07-22T06:58:22;1.05;;;0.85;;
66153;SDS011;52956;52.372;4.640;2022-07-22T07:00:48;3.80;;;1.08;;
66153;SDS011;52956;52.372;4.640;2022-07-22T07:03:13;2.05;;;0.85;;
66153;SDS011;52956;52.372;4.640;2022-07-22T07:05:38;1.63;;;1.23;;
66153;SDS011;52956;52.372;4.640;2022-07-22T07:08:04;1.50;;;0.90;;
66153;SDS011;52956;52.372;4.640;2022-07-22T07:10:30;2.05;;;1.05;;
66153;SDS011;52956;52.372;4.640;2022-07-22T07:12:56;2.75;;;0.80;;
66153;SDS011;52956;52.372;4.640;2022-07-22T07:15:22;1.63;;;0.80;;
66153;SDS011;52956;52.372;4.640;2022-07-22T07:17:48;2.38;;;0.95;;
66153;SDS011;52956;52.372;4.640;2022-07-22T07:20:13;6.28;;;1.17;;
66153;SDS011;52956;52.372;4.640;2022-07-22T07:22:39;3.00;;;1.40;;
66153;SDS011;52956;52.372;4.640;2022-07-22T07:25:04;6.53;;;1.00;;
66153;SDS011;52956;52.372;4.640;2022-07-22T07:27:31;4.53;;;1.17;;
66153;SDS011;52956;52.372;4.640;2022-07-22T07:29:57;3.45;;;1.30;;
66153;SDS011;52956;52.372;4.640;2022-07-22T07:32:22;4.07;;;1.15;;
66153;SDS011;52956;52.372;4.640;2022-07-22T07:34:48;4.78;;;1.15;;
66153;SDS011;52956;52.372;4.640;2022-07-22T07:37:13;5.22;;;1.13;;
66153;SDS011;52956;52.372;4.640;2022-07-22T07:39:38;3.22;;;0.80;;
66153;SDS011;52956;52.372;4.640;2022-07-22T07:42:04;3.40;;;1.00;;
66153;SDS011;52956;52.372;4.640;2022-07-22T07:44:29;1.98;;;0.90;;
66153;SDS011;52956;52.372;4.640;2022-07-22T07:46:54;4.30;;;1.08;;
66153;SDS011;52956;52.372;4.640;2022-07-22T07:49:20;1.67;;;0.90;;
66153;SDS011;52956;52.372;4.640;2022-07-22T07:51:45;4.03;;;0.82;;
66153;SDS011;52956;52.372;4.640;2022-07-22T07:54:10;1.38;;;0.90;;
66153;SDS011;52956;52.372;4.640;2022-07-22T07:56:36;2.72;;;0.90;;
66153;SDS011;52956;52.372;4.640;2022-07-22T07:59:02;2.58;;;0.95;;
66153;SDS011;52956;52.372;4.640;2022-07-22T08:01:27;1.98;;;0.80;;
66153;SDS011;52956;52.372;4.640;2022-07-22T08:03:52;1.25;;;0.95;;
66153;SDS011;52956;52.372;4.640;2022-07-22T08:06:18;3.08;;;0.93;;
66153;SDS011;52956;52.372;4.640;2022-07-22T08:08:43;2.35;;;1.13;;
66153;SDS011;52956;52.372;4.640;2022-07-22T08:11:08;2.15;;;0.90;;
66153;SDS011;52956;52.372;4.640;2022-07-22T08:13:34;2.90;;;0.80;;
66153;SDS011;52956;52.372;4.640;2022-07-22T08:15:59;3.10;;;0.90;;
66153;SDS011;52956;52.372;4.640;2022-07-22T08:18:25;3.97;;;1.00;;
66153;SDS011;52956;52.372;4.640;2022-07-22T08:20:53;3.88;;;0.98;;
66153;SDS011;52956;52.372;4.640;2022-07-22T08:23:19;4.10;;;0.82;;
66153;SDS011;52956;52.372;4.640;2022-07-22T08:25:45;4.30;;;1.10;;
66153;SDS011;52956;52.372;4.640;2022-07-22T08:28:10;15.60;;;1.70;;
66153;SDS011;52956;52.372;4.640;2022-07-22T08:30:35;21.83;;;2.90;;
66153;SDS011;52956;52.372;4.640;2022-07-22T08:33:01;10.93;;;2.47;;
66153;SDS011;52956;52.372;4.640;2022-07-22T08:35:27;7.10;;;2.30;;
66153;SDS011;52956;52.372;4.640;2022-07-22T08:37:53;8.48;;;2.15;;
66153;SDS011;52956;52.372;4.640;2022-07-22T08:40:18;3.70;;;1.55;;
66153;SDS011;52956;52.372;4.640;2022-07-22T08:42:45;3.33;;;1.10;;
66153;SDS011;52956;52.372;4.640;2022-07-22T08:45:12;2.25;;;1.17;;
66153;SDS011;52956;52.372;4.640;2022-07-22T08:47:37;5.90;;;1.20;;
66153;SDS011;52956;52.372;4.640;2022-07-22T08:50:03;4.28;;;1.35;;
66153;SDS011;52956;52.372;4.640;2022-07-22T08:52:28;3.95;;;1.58;;
66153;SDS011;52956;52.372;4.640;2022-07-22T08:54:54;2.25;;;0.95;;
66153;SDS011;52956;52.372;4.640;2022-07-22T08:57:20;3.78;;;1.20;;
66153;SDS011;52956;52.372;4.640;2022-07-22T08:59:49;5.15;;;1.20;;
66153;SDS011;52956;52.372;4.640;2022-07-22T09:02:15;3.22;;;1.20;;
66153;SDS011;52956;52.372;4.640;2022-07-22T09:04:56;7.13;;;1.20;;
66153;SDS011;52956;52.372;4.640;2022-07-22T09:07:27;4.18;;;1.20;;
66153;SDS011;52956;52.372;4.640;2022-07-22T09:09:56;1.30;;;0.90;;
66153;SDS011;52956;52.372;4.640;2022-07-22T09:12:23;3.72;;;1.15;;
66153;SDS011;52956;52.372;4.640;2022-07-22T09:14:51;4.75;;;1.17;;
66153;SDS011;52956;52.372;4.640;2022-07-22T09:17:24;5.18;;;1.33;;
66153;SDS011;52956;52.372;4.640;2022-07-22T09:20:02;5.88;;;1.00;;
66153;SDS011;52956;52.372;4.640;2022-07-22T09:22:40;2.60;;;1.00;;
66153;SDS011;52956;52.372;4.640;2022-07-22T09:25:27;3.42;;;1.20;;
66153;SDS011;52956;52.372;4.640;2022-07-22T09:30:32;2.55;;;1.17;;
66153;SDS011;52956;52.372;4.640;2022-07-22T09:32:59;5.22;;;1.30;;
66153;SDS011;52956;52.372;4.640;2022-07-22T09:35:25;5.65;;;1.23;;
66153;SDS011;52956;52.372;4.640;2022-07-22T09:37:53;2.40;;;1.10;;
66153;SDS011;52956;52.372;4.640;2022-07-22T09:40:20;3.60;;;1.40;;
66153;SDS011;52956;52.372;4.640;2022-07-22T09:42:50;3.17;;;1.02;;
66153;SDS011;52956;52.372;4.640;2022-07-22T09:45:17;4.85;;;1.30;;
66153;SDS011;52956;52.372;4.640;2022-07-22T09:47:44;3.92;;;1.30;;
66153;SDS011;52956;52.372;4.640;2022-07-22T09:52:55;4.75;;;1.40;;
66153;SDS011;52956;52.372;4.640;2022-07-22T09:55:22;3.30;;;1.23;;
66153;SDS011;52956;52.372;4.640;2022-07-22T09:57:49;4.88;;;1.92;;
66153;SDS011;52956;52.372;4.640;2022-07-22T10:00:16;2.55;;;1.50;;
66153;SDS011;52956;52.372;4.640;2022-07-22T10:05:12;5.70;;;1.10;;
66153;SDS011;52956;52.372;4.640;2022-07-22T10:07:40;6.60;;;1.15;;
66153;SDS011;52956;52.372;4.640;2022-07-22T10:10:07;2.72;;;1.10;;
66153;SDS011;52956;52.372;4.640;2022-07-22T10:12:34;4.90;;;0.95;;
66153;SDS011;52956;52.372;4.640;2022-07-22T10:15:01;4.45;;;1.40;;
66153;SDS011;52956;52.372;4.640;2022-07-22T10:17:26;2.97;;;1.10;;
66153;SDS011;52956;52.372;4.640;2022-07-22T10:19:52;6.55;;;0.90;;
66153;SDS011;52956;52.372;4.640;2022-07-22T10:25:08;3.67;;;1.00;;
66153;SDS011;52956;52.372;4.640;2022-07-22T10:30:30;2.08;;;1.10;;
66153;SDS011;52956;52.372;4.640;2022-07-22T10:37:58;3.38;;;1.00;;
66153;SDS011;52956;52.372;4.640;2022-07-22T10:40:27;3.35;;;0.90;;
66153;SDS011;52956;52.372;4.640;2022-07-22T10:43:12;3.08;;;1.10;;
66153;SDS011;52956;52.372;4.640;2022-07-22T10:45:40;3.03;;;0.80;;
66153;SDS011;52956;52.372;4.640;2022-07-22T10:48:07;4.32;;;1.10;;
66153;SDS011;52956;52.372;4.640;2022-07-22T10:53:03;10.98;;;1.40;;
66153;SDS011;52956;52.372;4.640;2022-07-22T10:55:31;4.47;;;1.00;;
66153;SDS011;52956;52.372;4.640;2022-07-22T10:57:58;2.72;;;0.93;;
66153;SDS011;52956;52.372;4.640;2022-07-22T11:00:23;1.95;;;0.90;;
66153;SDS011;52956;52.372;4.640;2022-07-22T11:02:49;6.50;;;1.10;;
66153;SDS011;52956;52.372;4.640;2022-07-22T11:05:14;3.45;;;1.15;;
66153;SDS011;52956;52.372;4.640;2022-07-22T11:07:50;4.90;;;1.85;;
66153;SDS011;52956;52.372;4.640;2022-07-22T11:10:16;6.60;;;2.45;;
66153;SDS011;52956;52.372;4.640;2022-07-22T11:12:44;3.70;;;1.90;;
66153;SDS011;52956;52.372;4.640;2022-07-22T11:15:10;5.25;;;1.67;;
66153;SDS011;52956;52.372;4.640;2022-07-22T11:17:36;5.45;;;1.98;;
66153;SDS011;52956;52.372;4.640;2022-07-22T11:20:03;4.63;;;1.90;;
66153;SDS011;52956;52.372;4.640;2022-07-22T11:22:31;6.43;;;2.38;;
66153;SDS011;52956;52.372;4.640;2022-07-22T11:24:57;7.03;;;2.17;;
66153;SDS011;52956;52.372;4.640;2022-07-22T11:27:24;5.70;;;2.30;;
66153;SDS011;52956;52.372;4.640;2022-07-22T11:29:51;5.30;;;1.88;;
66153;SDS011;52956;52.372;4.640;2022-07-22T11:32:19;6.53;;;2.17;;
66153;SDS011;52956;52.372;4.640;2022-07-22T11:34:48;5.05;;;2.10;;
66153;SDS011;52956;52.372;4.640;2022-07-22T11:37:13;3.78;;;1.98;;
66153;SDS011;52956;52.372;4.640;2022-07-22T11:39:40;3.28;;;1.85;;
66153;SDS011;52956;52.372;4.640;2022-07-22T11:42:06;3.95;;;1.55;;
66153;SDS011;52956;52.372;4.640;2022-07-22T11:44:32;4.78;;;1.88;;
66153;SDS011;52956;52.372;4.640;2022-07-22T11:47:02;6.07;;;2.33;;
66153;SDS011;52956;52.372;4.640;2022-07-22T11:49:29;5.38;;;1.90;;
66153;SDS011;52956;52.372;4.640;2022-07-22T11:51:56;3.85;;;1.83;;
66153;SDS011;52956;52.372;4.640;2022-07-22T11:54:21;3.50;;;1.77;;
66153;SDS011;52956;52.372;4.640;2022-07-22T11:56:47;4.75;;;2.28;;
66153;SDS011;52956;52.372;4.640;2022-07-22T11:59:14;4.93;;;1.70;;
66153;SDS011;52956;52.372;4.640;2022-07-22T12:01:42;8.85;;;1.73;;
66153;SDS011;52956;52.372;4.640;2022-07-22T12:04:10;7.30;;;2.10;;
66153;SDS011;52956;52.372;4.640;2022-07-22T12:06:38;4.55;;;1.70;;
66153;SDS011;52956;52.372;4.640;2022-07-22T12:09:12;6.13;;;1.67;;
66153;SDS011;52956;52.372;4.640;2022-07-22T12:11:41;3.15;;;1.80;;
66153;SDS011;52956;52.372;4.640;2022-07-22T12:14:09;5.57;;;1.50;;
66153;SDS011;52956;52.372;4.640;2022-07-22T12:16:37;3.08;;;1.50;;
66153;SDS011;52956;52.372;4.640;2022-07-22T12:19:12;2.50;;;1.70;;
66153;SDS011;52956;52.372;4.640;2022-07-22T12:21:55;5.00;;;1.75;;
66153;SDS011;52956;52.372;4.640;2022-07-22T12:24:46;2.90;;;1.30;;
66153;SDS011;52956;52.372;4.640;2022-07-22T12:27:13;2.40;;;1.15;;
66153;SDS011;52956;52.372;4.640;2022-07-22T12:32:09;4.03;;;1.57;;
66153;SDS011;52956;52.372;4.640;2022-07-22T12:40:17;4.90;;;1.20;;
66153;SDS011;52956;52.372;4.640;2022-07-22T12:42:42;2.28;;;1.58;;
66153;SDS011;52956;52.372;4.640;2022-07-22T12:52:46;1.53;;;1.20;;
66153;SDS011;52956;52.372;4.640;2022-07-22T12:55:13;4.10;;;1.65;;
66153;SDS011;52956;52.372;4.640;2022-07-22T12:57:38;2.30;;;1.42;;
66153;SDS011;52956;52.372;4.640;2022-07-22T13:00:04;2.65;;;1.10;;
66153;SDS011;52956;52.372;4.640;2022-07-22T13:02:29;1.70;;;0.98;;
66153;SDS011;52956;52.372;4.640;2022-07-22T13:04:55;0.90;;;0.90;;
66153;SDS011;52956;52.372;4.640;2022-07-22T13:07:20;2.05;;;1.10;;
66153;SDS011;52956;52.372;4.640;2022-07-22T13:09:45;1.40;;;0.90;;
66153;SDS011;52956;52.372;4.640;2022-07-22T13:12:11;2.45;;;1.10;;
66153;SDS011;52956;52.372;4.640;2022-07-22T13:14:36;1.10;;;0.98;;
66153;SDS011;52956;52.372;4.640;2022-07-22T13:17:01;1.50;;;1.05;;
66153;SDS011;52956;52.372;4.640;2022-07-22T13:19:28;1.67;;;0.82;;
66153;SDS011;52956;52.372;4.640;2022-07-22T13:21:53;1.52;;;1.00;;
66153;SDS011;52956;52.372;4.640;2022-07-22T13:24:19;1.58;;;1.15;;
66153;SDS011;52956;52.372;4.640;2022-07-22T13:26:44;1.65;;;0.95;;
66153;SDS011;52956;52.372;4.640;2022-07-22T13:29:10;1.10;;;0.98;;
66153;SDS011;52956;52.372;4.640;2022-07-22T13:31:37;1.55;;;1.10;;
66153;SDS011;52956;52.372;4.640;2022-07-22T13:34:02;2.70;;;1.23;;
66153;SDS011;52956;52.372;4.640;2022-07-22T13:36:27;1.33;;;1.10;;
66153;SDS011;52956;52.372;4.640;2022-07-22T13:38:53;1.88;;;1.00;;
66153;SDS011;52956;52.372;4.640;2022-07-22T13:41:19;1.75;;;1.15;;
66153;SDS011;52956;52.372;4.640;2022-07-22T13:43:44;2.78;;;1.20;;
66153;SDS011;52956;52.372;4.640;2022-07-22T13:46:10;2.10;;;1.00;;
66153;SDS011;52956;52.372;4.640;2022-07-22T13:48:36;2.33;;;1.10;;
66153;SDS011;52956;52.372;4.640;2022-07-22T13:51:01;1.50;;;1.00;;
66153;SDS011;52956;52.372;4.640;2022-07-22T13:53:29;1.17;;;0.90;;
66153;SDS011;52956;52.372;4.640;2022-07-22T13:55:55;1.73;;;0.95;;
66153;SDS011;52956;52.372;4.640;2022-07-22T13:58:20;0.98;;;0.98;;
66153;SDS011;52956;52.372;4.640;2022-07-22T14:00:45;1.42;;;1.20;;
66153;SDS011;52956;52.372;4.640;2022-07-22T14:03:11;2.28;;;1.10;;
66153;SDS011;52956;52.372;4.640;2022-07-22T14:05:36;2.47;;;0.85;;
66153;SDS011;52956;52.372;4.640;2022-07-22T14:08:01;1.23;;;0.77;;
66153;SDS011;52956;52.372;4.640;2022-07-22T14:10:27;4.75;;;1.05;;
66153;SDS011;52956;52.372;4.640;2022-07-22T14:12:52;2.08;;;1.08;;
66153;SDS011;52956;52.372;4.640;2022-07-22T14:15:18;1.20;;;1.10;;
66153;SDS011;52956;52.372;4.640;2022-07-22T14:17:45;2.10;;;0.93;;
66153;SDS011;52956;52.372;4.640;2022-07-22T14:20:10;2.20;;;0.98;;
66153;SDS011;52956;52.372;4.640;2022-07-22T14:22:36;1.20;;;1.00;;
66153;SDS011;52956;52.372;4.640;2022-07-22T14:25:02;3.03;;;1.05;;
66153;SDS011;52956;52.372;4.640;2022-07-22T14:27:28;1.90;;;1.13;;
66153;SDS011;52956;52.372;4.640;2022-07-22T14:29:53;1.20;;;1.10;;
66153;SDS011;52956;52.372;4.640;2022-07-22T14:32:18;2.00;;;1.27;;
66153;SDS011;52956;52.372;4.640;2022-07-22T14:34:44;2.28;;;1.00;;
66153;SDS011;52956;52.372;4.640;2022-07-22T14:37:10;0.90;;;0.80;;
66153;SDS011;52956;52.372;4.640;2022-07-22T14:39:35;1.10;;;0.85;;
66153;SDS011;52956;52.372;4.640;2022-07-22T14:42:00;1.70;;;1.05;;
66153;SDS011;52956;52.372;4.640;2022-07-22T14:44:26;1.63;;;0.80;;
66153;SDS011;52956;52.372;4.640;2022-07-22T14:46:51;1.60;;;1.10;;
66153;SDS011;52956;52.372;4.640;2022-07-22T14:49:17;1.10;;;0.80;;
66153;SDS011;52956;52.372;4.640;2022-07-22T14:51:42;1.05;;;0.90;;
66153;SDS011;52956;52.372;4.640;2022-07-22T14:54:08;1.00;;;0.82;;
66153;SDS011;52956;52.372;4.640;2022-07-22T14:56:36;1.95;;;0.90;;
66153;SDS011;52956;52.372;4.640;2022-07-22T14:59:05;1.42;;;1.00;;
66153;SDS011;52956;52.372;4.640;2022-07-22T15:01:31;1.15;;;0.80;;
66153;SDS011;52956;52.372;4.640;2022-07-22T15:03:56;1.58;;;0.90;;
66153;SDS011;52956;52.372;4.640;2022-07-22T15:06:22;1.42;;;0.77;;
66153;SDS011;52956;52.372;4.640;2022-07-22T15:08:47;1.55;;;0.80;;
66153;SDS011;52956;52.372;4.640;2022-07-22T15:11:13;1.30;;;0.80;;
66153;SDS011;52956;52.372;4.640;2022-07-22T15:13:38;1.33;;;0.90;;
66153;SDS011;52956;52.372;4.640;2022-07-22T15:16:03;1.02;;;0.70;;
66153;SDS011;52956;52.372;4.640;2022-07-22T15:18:29;1.50;;;1.10;;